Time;durP1;ratioP1;P1;durP2;ratioP2;P2;SDS_P1;SDS_P2;PMS_P1;PMS_P2;Temp;Humidity;BMP_temperature;BMP_pressure;BME280_temperature;BME280_humidity;BME280_pressure;Samples;Min_cycle;Max_cycle;Signal;HPM_P1;HPM_P2
2022/10/24 00:00:08;;;;;;;9.80;6.28;;;;;;;9.68;72.71;100064.91;4943841;28;20507;-92
2022/10/24 00:02:35;;;;;;;10.68;6.00;;;;;;;9.64;73.20;100076.41;4955180;28;20027;-92
2022/10/24 00:05:01;;;;;;;8.10;5.40;;;;;;;9.65;72.61;100056.50;4951923;28;20038;-92
2022/10/24 00:07:28;;;;;;;9.00;5.82;;;;;;;9.76;72.03;100069.06;4959929;28;20047;-92
2022/10/24 00:09:54;;;;;;;9.85;5.55;;;;;;;9.80;71.72;100067.50;4960896;28;20018;-92
2022/10/24 00:12:20;;;;;;;9.10;5.32;;;;;;;9.84;72.02;100079.41;4953460;28;20034;-91
2022/10/24 00:14:46;;;;;;;7.80;4.78;;;;;;;9.70;73.02;100089.66;4952961;28;20026;-93
2022/10/24 00:17:11;;;;;;;11.18;5.47;;;;;;;9.54;73.11;100070.84;4930901;28;20027;-92
2022/10/24 00:19:37;;;;;;;12.60;4.78;;;;;;;9.46;73.47;100070.22;4937248;28;20018;-92
2022/10/24 00:22:03;;;;;;;6.63;3.83;;;;;;;9.43;73.10;100057.25;4944393;28;20420;-92
2022/10/24 00:24:28;;;;;;;7.57;4.82;;;;;;;9.40;73.73;100065.81;4957194;28;20543;-92
2022/10/24 00:26:55;;;;;;;8.27;4.65;;;;;;;9.45;73.73;100073.94;4944275;28;20034;-92
2022/10/24 00:29:21;;;;;;;11.18;5.05;;;;;;;9.39;73.01;100058.78;4978390;28;20118;-92
2022/10/24 00:31:48;;;;;;;7.90;4.68;;;;;;;9.26;73.89;100062.59;4957688;28;20026;-92
2022/10/24 00:34:14;;;;;;;7.35;4.22;;;;;;;9.29;73.76;100083.59;4953482;28;20497;-92
2022/10/24 00:36:40;;;;;;;6.15;3.95;;;;;;;9.29;73.66;100083.59;4951501;28;20035;-92
2022/10/24 00:39:07;;;;;;;12.43;5.00;;;;;;;9.15;73.86;100068.03;4957409;28;20030;-92
2022/10/24 00:41:36;;;;;;;7.28;4.22;;;;;;;9.12;74.16;100081.97;4943154;28;20085;-92
2022/10/24 00:44:32;;;;;;;10.65;4.53;;;;;;;8.89;75.02;100054.16;4944124;28;20028;-92
2022/10/24 00:47:14;;;;;;;7.30;4.60;;;;;;;8.92;74.94;100080.53;4935784;28;20042;-92
2022/10/24 00:49:47;;;;;;;7.22;4.15;;;;;;;8.94;74.77;100086.47;4974283;28;20082;-92
2022/10/24 00:52:16;;;;;;;6.70;4.15;;;;;;;8.87;74.87;100059.75;4958693;28;20101;-92
2022/10/24 00:54:42;;;;;;;7.80;4.07;;;;;;;8.88;74.27;100061.41;4941192;28;20061;-92
2022/10/24 00:57:13;;;;;;;8.07;4.20;;;;;;;8.89;74.10;100046.09;4958622;28;20038;-92
2022/10/24 00:59:44;;;;;;;6.57;4.23;;;;;;;8.98;74.90;100082.25;4925518;29;20019;-92
2022/10/24 01:02:12;;;;;;;8.18;4.55;;;;;;;8.97;74.93;100077.13;4939653;28;20142;-93
2022/10/24 01:04:38;;;;;;;10.07;5.05;;;;;;;8.84;74.84;100059.41;4963098;28;20033;-92
2022/10/24 01:07:13;;;;;;;7.93;4.82;;;;;;;8.90;75.42;100077.25;4956678;28;20394;-92
2022/10/24 01:10:08;;;;;;;7.60;4.30;;;;;;;8.86;74.98;100085.00;4970744;28;20023;-92
2022/10/24 01:13:17;;;;;;;7.30;4.35;;;;;;;8.78;74.92;100068.44;4953742;28;20027;-92
2022/10/24 01:16:16;;;;;;;9.23;4.97;;;;;;;8.64;74.88;100049.94;4952685;28;20049;-92
2022/10/24 01:19:02;;;;;;;6.75;4.35;;;;;;;8.79;74.43;100057.47;4937798;28;20027;-92
2022/10/24 01:21:29;;;;;;;6.10;4.28;;;;;;;9.03;74.21;100082.34;4947832;28;20014;-92
2022/10/24 01:24:09;;;;;;;6.63;4.75;;;;;;;9.03;74.62;100076.97;4964369;28;20121;-92
2022/10/24 01:26:44;;;;;;;8.55;4.93;;;;;;;8.95;75.04;100060.44;4952323;28;20031;-92
2022/10/24 01:29:19;;;;;;;9.80;4.13;;;;;;;8.86;74.53;100054.63;4960074;28;20145;-92
2022/10/24 01:31:50;;;;;;;9.32;5.45;;;;;;;8.82;74.37;100040.03;4971425;28;20052;-93
2022/10/24 01:34:24;;;;;;;7.65;4.45;;;;;;;8.83;74.55;100055.13;4958055;28;20033;-92
2022/10/24 01:36:55;;;;;;;8.38;4.60;;;;;;;8.95;74.56;100057.75;4968158;28;20029;-92
2022/10/24 01:39:21;;;;;;;6.43;4.47;;;;;;;8.85;74.41;100040.38;4952892;28;20516;-92
2022/10/24 01:41:47;;;;;;;7.75;4.60;;;;;;;9.00;74.36;100061.34;4961075;28;20267;-93
2022/10/24 01:44:21;;;;;;;8.73;4.70;;;;;;;8.89;73.97;100041.53;4961874;28;20057;-92
2022/10/24 01:47:14;;;;;;;6.90;4.68;;;;;;;8.88;74.00;100064.09;4946188;28;20030;-92
2022/10/24 01:49:41;;;;;;;7.05;4.63;;;;;;;8.77;73.67;100046.13;4955251;28;20541;-92
2022/10/24 01:52:09;;;;;;;8.15;4.55;;;;;;;8.71;74.31;100052.47;4977470;28;20030;-92
2022/10/24 01:54:36;;;;;;;8.88;4.45;;;;;;;8.72;73.84;100029.94;4960533;28;20144;-93
2022/10/24 01:57:04;;;;;;;6.38;4.13;;;;;;;8.90;73.56;100042.34;4958921;28;20062;-93
2022/10/24 01:59:29;;;;;;;7.95;4.63;;;;;;;8.85;74.06;100053.81;4941083;28;20101;-92
2022/10/24 02:02:11;;;;;;;8.57;4.65;;;;;;;8.87;73.44;100054.38;4988898;28;20056;-92
2022/10/24 02:04:39;;;;;;;7.20;4.20;;;;;;;8.63;73.75;100018.78;4947381;28;20116;-92
2022/10/24 02:07:06;;;;;;;7.20;4.68;;;;;;;8.59;74.25;100035.59;4942545;28;20787;-92
2022/10/24 02:09:33;;;;;;;7.65;4.80;;;;;;;8.66;75.03;100055.88;4945547;28;20019;-92
2022/10/24 02:11:58;;;;;;;8.93;4.30;;;;;;;8.69;74.55;100055.41;4961162;28;20117;-92
2022/10/24 02:14:32;;;;;;;7.10;4.38;;;;;;;8.65;74.54;100045.38;4961160;28;20026;-92
2022/10/24 02:16:59;;;;;;;6.93;4.72;;;;;;;8.54;73.96;100025.56;4944885;28;20027;-92
2022/10/24 02:19:24;;;;;;;7.35;4.28;;;;;;;8.80;73.44;100051.03;4942963;28;20029;-92
2022/10/24 02:22:13;;;;;;;7.57;4.40;;;;;;;9.03;72.90;100058.19;4941480;28;20034;-92
2022/10/24 02:24:44;;;;;;;6.90;4.47;;;;;;;8.82;73.39;100040.88;4959023;28;20488;-92
2022/10/24 02:27:40;;;;;;;8.90;5.07;;;;;;;8.86;73.63;100062.69;4954873;28;20026;-92
2022/10/24 02:30:34;;;;;;;9.90;5.32;;;;;;;8.76;74.21;100059.81;4932449;28;20026;-92
2022/10/24 02:33:00;;;;;;;6.15;3.85;;;;;;;8.80;73.53;100037.63;4918723;29;20520;-92
2022/10/24 02:35:28;;;;;;;6.75;4.38;;;;;;;8.90;73.29;100035.13;4886640;29;20562;-93
2022/10/24 02:38:04;;;;;;;5.85;2.97;;;;;;;9.11;73.11;100048.91;4903657;29;20544;-92
2022/10/24 02:40:30;;;;;;;4.65;2.83;;;;;;;9.17;73.05;100041.75;4878104;29;20028;-92
2022/10/24 02:42:57;;;;;;;3.72;2.53;;;;;;;9.17;73.07;100033.69;4900195;29;20049;-92
2022/10/24 02:45:23;;;;;;;4.32;2.03;;;;;;;9.43;73.15;100057.25;4884333;29;20059;-92
2022/10/24 02:47:49;;;;;;;7.38;4.63;;;;;;;9.15;71.80;100046.53;4883003;29;20039;-92
2022/10/24 02:50:15;;;;;;;7.72;4.47;;;;;;;9.06;72.35;100064.94;4899225;29;20060;-92
2022/10/24 02:52:40;;;;;;;9.35;4.88;;;;;;;8.86;72.37;100039.34;4883722;29;20573;-92
2022/10/24 02:55:08;;;;;;;9.95;5.07;;;;;;;8.79;73.06;100041.34;4888218;29;20032;-92
2022/10/24 02:57:33;;;;;;;11.43;5.30;;;;;;;8.84;73.20;100059.41;4913584;29;20027;-92
2022/10/24 02:59:59;;;;;;;13.65;4.93;;;;;;;8.77;73.01;100064.13;4886949;29;20518;-91
2022/10/24 03:02:25;;;;;;;10.40;4.63;;;;;;;8.48;73.87;100031.91;4899433;29;20051;-93
2022/10/24 03:04:52;;;;;;;8.32;4.80;;;;;;;8.46;73.55;100042.03;4931749;28;20417;-93
2022/10/24 03:07:18;;;;;;;10.63;4.95;;;;;;;8.40;73.52;100042.97;4940750;28;20031;-92
2022/10/24 03:09:46;;;;;;;7.57;4.25;;;;;;;8.32;73.83;100029.91;4941368;28;20019;-92
2022/10/24 03:12:15;;;;;;;10.50;4.55;;;;;;;8.24;74.10;100026.56;4949821;28;20056;-92
2022/10/24 03:14:44;;;;;;;9.70;4.18;;;;;;;8.33;74.25;100059.22;4946229;28;20061;-92
2022/10/24 03:17:09;;;;;;;6.82;4.43;;;;;;;8.41;74.16;100060.75;4956542;28;20030;-92
2022/10/24 03:19:37;;;;;;;13.80;5.03;;;;;;;8.46;73.86;100050.09;4924867;28;20019;-92
2022/10/24 03:22:04;;;;;;;5.88;3.97;;;;;;;8.47;73.45;100049.06;4957173;28;20035;-92
2022/10/24 03:24:30;;;;;;;8.30;4.03;;;;;;;8.42;73.35;100024.78;4957416;28;20030;-92
2022/10/24 03:26:56;;;;;;;7.93;3.78;;;;;;;8.54;72.79;100033.63;4940603;28;20019;-92
2022/10/24 03:29:22;;;;;;;6.60;3.72;;;;;;;8.56;73.31;100028.03;4954023;28;20027;-92
2022/10/24 03:31:50;;;;;;;8.18;4.57;;;;;;;8.41;73.44;100009.75;4951754;28;20026;-92
2022/10/24 03:34:16;;;;;;;9.38;4.57;;;;;;;8.61;73.19;100039.69;4944213;28;20023;-92
2022/10/24 03:36:42;;;;;;;58.33;8.00;;;;;;;8.47;73.24;100031.09;4934086;28;20037;-92
2022/10/24 03:39:08;;;;;;;9.73;4.70;;;;;;;8.50;73.05;100035.16;4960341;28;20026;-92
2022/10/24 03:41:40;;;;;;;8.45;4.30;;;;;;;8.65;72.83;100031.94;4975062;28;20046;-92
2022/10/24 03:44:06;;;;;;;7.07;4.40;;;;;;;8.69;72.99;100015.16;4957455;28;20050;-93
2022/10/24 03:46:32;;;;;;;8.77;3.95;;;;;;;8.86;73.53;100031.28;4957453;28;20057;-92
2022/10/24 03:48:58;;;;;;;6.32;3.60;;;;;;;8.86;73.41;100022.41;4949363;28;20035;-92
2022/10/24 03:51:24;;;;;;;6.80;4.05;;;;;;;8.83;73.51;100025.56;4950903;28;20030;-92
2022/10/24 03:53:50;;;;;;;6.40;3.80;;;;;;;8.79;73.23;100030.59;4953156;28;20023;-92
2022/10/24 03:56:16;;;;;;;11.32;4.32;;;;;;;8.69;73.56;100023.19;4944651;28;20038;-96
2022/10/24 03:58:42;;;;;;;12.23;4.60;;;;;;;8.72;72.93;100026.47;4947836;28;20030;-95
2022/10/24 04:01:15;;;;;;;9.43;3.15;;;;;;;8.85;73.00;100024.28;4967127;28;20022;-95
2022/10/24 04:03:45;;;;;;;12.20;4.85;;;;;;;8.87;73.24;100016.78;4967646;28;20193;-96
2022/10/24 04:06:13;;;;;;;6.13;3.10;;;;;;;9.04;72.30;100024.06;4949830;28;20473;-96
2022/10/24 04:08:39;;;;;;;4.75;2.55;;;;;;;9.02;72.34;100013.56;4967156;28;20030;-96
2022/10/24 04:11:08;;;;;;;5.10;3.05;;;;;;;9.16;72.11;100029.38;4966723;28;20054;-95
2022/10/24 04:13:33;;;;;;;9.82;2.63;;;;;;;9.24;72.24;100034.34;4951098;28;20100;-94
2022/10/24 04:16:08;;;;;;;6.07;4.05;;;;;;;9.05;71.23;100020.34;4967516;28;20029;-94
2022/10/24 04:18:37;;;;;;;13.68;4.40;;;;;;;8.86;71.21;100011.66;4981084;28;20022;-95
2022/10/24 04:21:03;;;;;;;12.35;5.10;;;;;;;8.70;71.45;100015.94;4950013;28;20054;-96
2022/10/24 04:23:34;;;;;;;9.43;4.60;;;;;;;8.67;71.11;100029.84;4966186;28;20521;-95
2022/10/24 04:26:01;;;;;;;10.40;4.90;;;;;;;8.44;71.45;100020.00;4950952;28;20021;-96
2022/10/24 04:28:30;;;;;;;10.63;5.32;;;;;;;8.46;71.40;100042.84;4979633;28;20463;-95
2022/10/24 04:30:56;;;;;;;9.20;5.30;;;;;;;8.24;71.90;100020.41;4964111;28;20530;-92
2022/10/24 04:33:22;;;;;;;15.43;5.93;;;;;;;8.22;72.21;100031.34;4948025;28;20169;-94
2022/10/24 04:35:48;;;;;;;12.23;6.30;;;;;;;8.19;72.61;100017.59;4947145;28;20029;-94
2022/10/24 04:38:13;;;;;;;16.05;6.28;;;;;;;8.16;72.35;100015.41;4946756;28;20404;-92
2022/10/24 04:40:40;;;;;;;14.40;5.88;;;;;;;8.21;72.09;100015.50;4947548;28;20026;-92
2022/10/24 04:43:06;;;;;;;11.77;6.35;;;;;;;8.26;72.78;100034.38;4947588;28;20038;-92
2022/10/24 04:45:32;;;;;;;11.30;5.88;;;;;;;8.15;72.47;100025.28;4963341;28;20109;-92
2022/10/24 04:47:58;;;;;;;12.35;4.72;;;;;;;8.08;72.65;100027.28;4978610;28;20531;-93
2022/10/24 04:50:24;;;;;;;9.57;5.35;;;;;;;8.12;72.77;100036.50;4963862;28;20053;-93
2022/10/24 04:52:51;;;;;;;10.57;5.07;;;;;;;8.02;73.15;100038.97;4947654;28;20129;-93
2022/10/24 04:55:19;;;;;;;16.85;6.88;;;;;;;7.92;73.97;100031.50;4954419;29;20505;-93
2022/10/24 04:57:44;;;;;;;10.27;6.07;;;;;;;7.91;74.31;100029.88;4941645;28;20039;-94
2022/10/24 05:00:12;;;;;;;15.38;6.43;;;;;;;7.86;73.93;100017.19;4940106;28;20512;-94
2022/10/24 05:02:39;;;;;;;13.02;6.38;;;;;;;7.90;74.25;100023.69;4952218;28;20113;-93
2022/10/24 05:05:06;;;;;;;12.35;7.63;;;;;;;8.06;74.20;100040.94;4945071;28;20027;-91
2022/10/24 05:07:31;;;;;;;12.73;6.15;;;;;;;8.03;74.21;100027.16;4944379;28;20023;-92
2022/10/24 05:10:04;;;;;;;13.90;6.18;;;;;;;8.03;74.18;100019.97;4946249;28;20026;-95
2022/10/24 05:12:30;;;;;;;10.45;5.70;;;;;;;8.12;73.48;100023.09;4964002;28;20031;-95
2022/10/24 05:14:56;;;;;;;14.98;6.22;;;;;;;8.07;74.08;100012.25;4946020;28;20061;-93
2022/10/24 05:17:22;;;;;;;7.30;5.13;;;;;;;8.15;73.00;100021.78;4961128;28;20038;-94
2022/10/24 05:19:49;;;;;;;10.20;5.53;;;;;;;8.04;73.51;100023.44;4945744;28;20335;-93
2022/10/24 05:22:15;;;;;;;9.65;5.40;;;;;;;8.13;73.08;100035.44;4933707;29;20530;-93
2022/10/24 05:24:41;;;;;;;9.18;5.22;;;;;;;7.95;73.08;100024.84;4940602;29;20086;-94
2022/10/24 05:27:06;;;;;;;8.95;5.32;;;;;;;7.98;73.09;100030.56;4939972;28;20053;-95
2022/10/24 05:29:33;;;;;;;13.38;6.65;;;;;;;7.98;73.39;100030.56;4948509;28;20106;-94
2022/10/24 05:32:01;;;;;;;17.25;6.55;;;;;;;8.03;73.37;100022.66;4939815;28;20031;-95
2022/10/24 05:34:26;;;;;;;15.63;6.55;;;;;;;8.10;73.08;100023.31;4926864;28;20034;-94
2022/10/24 05:36:52;;;;;;;12.30;6.72;;;;;;;8.22;72.94;100033.22;4938462;28;20093;-95
2022/10/24 05:39:19;;;;;;;11.57;6.28;;;;;;;8.25;73.25;100033.56;4962514;28;20045;-94
2022/10/24 05:41:46;;;;;;;13.05;6.95;;;;;;;8.39;72.63;100062.81;4959507;28;20045;-93
2022/10/24 05:44:15;;;;;;;11.77;5.97;;;;;;;8.29;72.60;100052.69;4961111;28;20026;-94
2022/10/24 05:46:43;;;;;;;10.50;5.97;;;;;;;8.23;72.87;100038.34;4926540;29;20056;-96
2022/10/24 05:49:14;;;;;;;10.63;5.57;;;;;;;8.32;72.61;100043.34;4946326;28;20026;-95
2022/10/24 05:51:47;;;;;;;17.20;10.48;;;;;;;8.59;72.17;100071.31;4967011;28;20049;-95
2022/10/24 05:54:52;;;;;;;23.83;7.93;;;;;;;8.79;72.00;100080.81;4956057;28;20430;-95
2022/10/24 05:57:19;;;;;;;20.33;14.13;;;;;;;8.72;71.97;100050.63;4959146;29;20039;-94
2022/10/24 05:59:46;;;;;;;20.73;8.35;;;;;;;8.69;71.48;100052.72;4968031;28;20035;-95
2022/10/24 06:02:30;;;;;;;17.52;9.40;;;;;;;8.67;72.08;100037.88;4942730;28;20121;-95
2022/10/24 06:05:07;;;;;;;18.17;8.55;;;;;;;8.92;71.76;100055.53;4949645;28;20469;-96
2022/10/24 06:08:02;;;;;;;24.38;8.40;;;;;;;8.90;71.49;100045.88;4943072;28;20378;-95
2022/10/24 06:11:01;;;;;;;27.05;9.38;;;;;;;9.29;71.19;100082.81;4844998;29;20052;-96
2022/10/24 06:13:30;;;;;;;25.23;9.45;;;;;;;9.22;70.79;100049.91;4903386;29;20081;-93
2022/10/24 06:15:56;;;;;;;17.55;8.90;;;;;;;9.50;70.66;100078.59;4933198;28;20133;-96
2022/10/24 06:18:28;;;;;;;20.45;9.25;;;;;;;9.45;70.51;100063.19;4927782;28;20027;-95
2022/10/24 06:20:53;;;;;;;16.35;8.77;;;;;;;9.55;69.70;100049.09;4931144;28;20027;-92
2022/10/24 06:23:20;;;;;;;18.13;8.27;;;;;;;9.74;69.12;100055.03;4943026;28;20061;-93
2022/10/24 06:25:52;;;;;;;8.13;4.88;;;;;;;10.04;69.35;100078.06;4945076;28;20054;-93
2022/10/24 06:28:19;;;;;;;10.82;4.60;;;;;;;10.10;69.42;100067.13;4943252;28;20030;-93
2022/10/24 06:30:47;;;;;;;19.67;6.30;;;;;;;10.11;68.52;100051.81;4926834;28;20030;-96
2022/10/24 06:33:17;;;;;;;14.38;5.53;;;;;;;10.24;68.12;100054.13;4939075;28;20027;-95
2022/10/24 06:35:47;;;;;;;17.25;6.55;;;;;;;10.40;67.91;100051.69;4940903;28;20066;-94
2022/10/24 06:38:22;;;;;;;22.23;7.50;;;;;;;10.67;67.28;100060.59;4947723;28;20117;-95
2022/10/24 06:40:51;;;;;;;5.78;3.50;;;;;;;10.65;67.03;100038.50;4936807;28;20034;-95
2022/10/24 06:43:22;;;;;;;6.95;3.08;;;;;;;10.72;66.15;100041.78;4944629;28;20492;-93
2022/10/24 06:45:57;;;;;;;13.45;6.70;;;;;;;10.97;65.61;100047.72;4962856;28;20035;-96
2022/10/24 06:48:31;;;;;;;26.15;12.27;;;;;;;11.21;65.62;100084.06;4949232;29;20027;-94
2022/10/24 06:51:12;;;;;;;15.20;5.05;;;;;;;11.24;65.14;100074.66;4869300;29;20048;-94
2022/10/24 06:53:38;;;;;;;8.98;4.50;;;;;;;11.35;65.01;100062.06;4844824;29;20137;-96
2022/10/24 06:56:07;;;;;;;12.80;5.05;;;;;;;11.64;64.30;100074.19;4858081;29;20143;-96
2022/10/24 07:02:31;;;;;;;12.18;5.40;;;;;;;11.97;63.62;100074.19;4850872;29;20045;-95
2022/10/24 07:05:08;;;;;;;14.63;6.13;;;;;;;12.02;62.98;100052.63;4860126;29;20162;-93
2022/10/24 07:07:36;;;;;;;12.77;7.18;;;;;;;12.12;62.71;100056.19;4880782;29;20140;-93
2022/10/24 07:10:13;;;;;;;12.73;6.18;;;;;;;12.36;62.27;100065.75;4851863;29;20476;-94
2022/10/24 07:12:39;;;;;;;24.45;9.85;;;;;;;12.41;61.95;100057.66;4852311;29;20048;-95
2022/10/24 07:15:05;;;;;;;39.92;15.98;;;;;;;12.58;61.94;100057.47;4847548;29;20045;-95
2022/10/24 07:17:31;;;;;;;30.70;11.40;;;;;;;12.70;61.59;100055.34;4872485;29;20037;-95
2022/10/24 07:19:57;;;;;;;19.58;9.32;;;;;;;12.74;61.19;100056.44;4878735;29;20060;-94
2022/10/24 07:23:07;;;;;;;24.25;9.82;;;;;;;12.86;60.56;100051.59;4890607;29;20100;-96
2022/10/24 07:25:40;;;;;;;12.57;7.25;;;;;;;13.09;60.82;100077.34;4890859;29;20044;-94
2022/10/24 07:28:33;;;;;;;14.95;9.40;;;;;;;13.27;60.30;100075.22;4928257;28;20437;-94
2022/10/24 07:31:05;;;;;;;27.75;11.02;;;;;;;13.23;60.53;100056.00;4950920;28;20043;-95
2022/10/24 07:33:42;;;;;;;23.90;12.02;;;;;;;13.23;60.48;100038.97;4948303;28;20035;-96
2022/10/24 07:36:22;;;;;;;19.27;9.70;;;;;;;13.38;59.54;100047.09;4962728;28;20034;-96
2022/10/24 07:38:49;;;;;;;50.63;28.55;;;;;;;13.55;59.49;100044.16;4966870;28;20027;-91
2022/10/24 07:41:18;;;;;;;10.02;6.60;;;;;;;13.77;58.73;100062.78;4982369;28;20035;-94
2022/10/24 07:43:46;;;;;;;10.57;5.20;;;;;;;13.92;58.65;100068.19;4946379;28;20562;-95
2022/10/24 07:46:13;;;;;;;15.77;8.38;;;;;;;13.91;58.60;100049.50;4947912;28;20035;-95
2022/10/24 07:48:41;;;;;;;10.88;5.90;;;;;;;14.02;58.32;100042.97;4963120;28;20147;-93
2022/10/24 07:51:20;;;;;;;25.00;15.98;;;;;;;14.24;57.64;100041.84;4947702;28;20019;-96
2022/10/24 07:54:07;;;;;;;12.52;6.72;;;;;;;14.43;57.19;100045.56;4977690;28;20065;-96
2022/10/24 07:57:06;;;;;;;7.43;3.60;;;;;;;14.63;56.13;100041.16;4966079;28;20412;-96
2022/10/24 07:59:32;;;;;;;10.50;5.03;;;;;;;14.61;55.53;100025.19;4944551;28;20070;-95
2022/10/24 08:02:01;;;;;;;9.85;5.50;;;;;;;14.80;55.39;100030.78;4949578;28;20038;-96
2022/10/24 08:04:29;;;;;;;6.80;3.55;;;;;;;14.88;54.86;100024.75;4963628;28;20034;-95
2022/10/24 08:07:19;;;;;;;5.82;3.65;;;;;;;15.10;54.99;100035.16;4932869;28;20097;-96
2022/10/24 08:09:47;;;;;;;10.23;3.20;;;;;;;15.21;54.19;100043.22;4935506;28;20033;-96
2022/10/24 08:12:24;;;;;;;4.72;2.45;;;;;;;15.41;53.06;100045.78;4966950;28;20094;-96
2022/10/24 08:14:52;;;;;;;11.77;3.97;;;;;;;15.41;52.88;100026.78;4951918;28;20038;-95
2022/10/24 08:23:41;;;;;;;;;;;;;;;;;;;;;
2022/10/24 08:26:54;;;;;;;;;;;;;;;;;;;;;
2022/10/24 08:29:45;;;;;;;3.08;1.75;;;;;;;16.07;49.98;100030.81;5020534;23;20081;-96
2022/10/24 08:42:04;;;;;;;8.43;2.97;;;;;;;16.84;48.83;100037.22;5086887;23;20042;-96
2022/10/24 08:44:35;;;;;;;7.25;2.40;;;;;;;16.92;48.74;100039.28;4945482;29;20055;-96
2022/10/24 08:47:26;;;;;;;8.45;4.90;;;;;;;16.98;49.22;100040.81;4955549;29;20090;-95
2022/10/24 08:49:56;;;;;;;7.75;3.92;;;;;;;16.97;49.18;100028.31;4955203;29;20107;-95
2022/10/24 08:56:28;;;;;;;5.72;3.78;;;;;;;17.14;48.98;100034.06;4958196;29;20039;-95
2022/10/24 09:03:07;;;;;;;2.90;1.98;;;;;;;17.29;47.49;100038.44;4932964;29;20079;-96
2022/10/24 09:06:33;;;;;;;5.57;2.97;;;;;;;17.21;46.27;100011.91;4944375;29;20043;-96
2022/10/24 09:17:42;;;;;;;;;;;;;;;;;;;;;
2022/10/24 09:20:56;;;;;;;;;;;;;;;;;;;;;
2022/10/24 09:23:28;;;;;;;3.78;1.63;;;;;;;17.82;44.61;99990.94;5003907;23;20073;-95
2022/10/24 09:31:18;;;;;;;3.60;1.70;;;;;;;18.13;43.54;99979.47;4986909;28;20054;-96
2022/10/24 09:37:07;;;;;;;;;;;;;;;;;;;;;
2022/10/24 09:40:45;;;;;;;5.90;2.88;;;;;;;18.56;43.79;99977.19;4960281;28;20134;-96
2022/10/24 09:46:21;;;;;;;2.00;1.40;;;;;;;18.85;42.76;99961.59;4891599;29;20041;-96
2022/10/24 09:49:21;;;;;;;2.17;1.70;;;;;;;18.92;43.01;99951.81;4862843;29;20017;-96
2022/10/24 09:52:30;;;;;;;;;;;;;;;;;;;;;
2022/10/24 10:02:24;;;;;;;3.58;1.67;;;;;;;19.37;42.81;99954.53;4805045;30;20054;-96
2022/10/24 10:05:27;;;;;;;3.55;1.83;;;;;;;19.57;42.19;99963.31;4772689;30;20553;-96
2022/10/24 10:13:21;;;;;;;3.95;2.08;;;;;;;19.85;41.43;99966.69;4990866;28;20074;-96
2022/10/24 10:16:18;;;;;;;4.75;2.35;;;;;;;19.72;41.63;99938.34;4955929;28;20043;-96
2022/10/24 10:19:21;;;;;;;6.13;2.10;;;;;;;19.99;41.04;99956.44;4964016;28;20481;-96
2022/10/24 10:22:21;;;;;;;;;;;;;;;;;;;;;
2022/10/24 10:25:26;;;;;;;3.92;1.83;;;;;;;19.89;40.85;99920.38;4974791;28;20052;-96
2022/10/24 10:37:50;;;;;;;4.40;1.60;;;;;;;20.41;39.40;99945.09;5248542;23;20046;-96
2022/10/24 10:43:58;;;;;;;6.18;2.00;;;;;;;20.74;39.58;99933.72;5084033;23;20050;-96
2022/10/24 10:47:02;;;;;;;;;;;;;;;;;;;;;
2022/10/24 10:49:56;;;;;;;3.95;2.45;;;;;;;20.89;39.60;99930.47;4991263;28;20126;-96
2022/10/24 11:01:19;;;;;;;2.22;1.02;;;;;;;21.19;38.92;99925.91;5005937;28;20047;-92
2022/10/24 11:03:52;;;;;;;4.35;1.42;;;;;;;21.04;38.17;99890.03;4983959;28;20053;-94
2022/10/24 11:06:33;;;;;;;2.85;1.40;;;;;;;21.15;38.58;99894.03;4959088;28;20025;-92
2022/10/24 11:09:11;;;;;;;4.57;1.65;;;;;;;21.24;38.54;99905.75;4973954;28;20105;-92
2022/10/24 11:11:39;;;;;;;2.10;1.30;;;;;;;21.15;37.86;99886.63;4973508;28;20036;-95
2022/10/24 11:14:22;;;;;;;3.67;1.17;;;;;;;21.30;38.20;99903.66;4963158;28;20041;-92
2022/10/24 11:16:53;;;;;;;2.42;1.65;;;;;;;21.24;38.20;99883.84;4988895;28;20049;-93
2022/10/24 11:19:41;;;;;;;1.90;1.00;;;;;;;21.37;37.94;99892.97;4969010;28;20047;-92
2022/10/24 11:22:22;;;;;;;2.00;0.80;;;;;;;21.39;37.74;99877.03;4977183;28;20025;-94
2022/10/24 11:25:40;;;;;;;3.17;1.10;;;;;;;21.48;37.10;99882.50;4960981;28;20026;-93
2022/10/24 11:28:22;;;;;;;1.02;0.80;;;;;;;21.52;37.03;99888.91;4988577;28;20501;-96
2022/10/24 11:30:47;;;;;;;;;;;;;;;21.54;36.96;99886.66;4985386;28;20030;-96
2022/10/24 11:55:20;;;;;;;2.53;1.17;;;;;;;21.79;36.68;99885.75;5013357;28;20082;-96
2022/10/24 12:01:14;;;;;;;2.88;1.30;;;;;;;21.69;36.83;99855.97;4972588;28;20194;-94
2022/10/24 12:04:06;;;;;;;1.60;1.05;;;;;;;21.92;36.52;99883.88;4994370;28;20114;-95
2022/10/24 12:07:10;;;;;;;2.60;1.25;;;;;;;21.93;36.84;99865.50;4992587;28;20433;-96
2022/10/24 12:10:10;;;;;;;3.28;1.25;;;;;;;21.94;37.19;99861.63;4953775;29;20042;-95
2022/10/24 12:13:27;;;;;;;;;;;;;;;;;;;;;
2022/10/24 12:16:13;;;;;;;7.40;1.60;;;;;;;22.24;37.44;99869.81;4927412;29;20103;-94
2022/10/24 12:19:08;;;;;;;6.57;1.40;;;;;;;22.08;37.77;99840.25;4930396;29;20099;-95
2022/10/24 12:21:56;;;;;;;1.92;1.23;;;;;;;21.98;37.79;99833.19;4905132;29;20033;-94
2022/10/24 12:24:33;;;;;;;2.97;1.30;;;;;;;22.06;37.34;99847.16;4920378;29;20527;-94
2022/10/24 12:27:01;;;;;;;2.72;1.20;;;;;;;22.07;37.71;99843.31;4905647;29;20513;-95
2022/10/24 12:29:27;;;;;;;3.38;1.42;;;;;;;22.08;37.24;99839.41;4889073;29;20499;-95
2022/10/24 12:31:53;;;;;;;3.35;1.77;;;;;;;22.15;37.95;99842.44;4905148;29;20076;-94
2022/10/24 12:34:22;;;;;;;2.45;1.30;;;;;;;22.35;37.19;99849.06;4905664;29;20084;-95
2022/10/24 12:37:10;;;;;;;2.42;1.42;;;;;;;22.33;37.69;99846.69;4938873;29;20048;-95
2022/10/24 12:39:41;;;;;;;4.35;1.45;;;;;;;22.16;37.04;99838.53;4949385;28;20035;-96
2022/10/24 12:42:15;;;;;;;4.20;2.00;;;;;;;22.17;37.39;99830.00;4958534;28;20027;-93
2022/10/24 12:44:41;;;;;;;2.08;1.23;;;;;;;22.18;37.18;99826.13;4959742;28;20026;-95
2022/10/24 12:47:50;;;;;;;2.45;1.30;;;;;;;22.32;36.97;99836.84;4947633;28;20030;-94
2022/10/24 12:50:27;;;;;;;2.38;1.35;;;;;;;22.33;37.12;99840.38;4926119;28;20149;-94
2022/10/24 12:52:56;;;;;;;1.90;1.00;;;;;;;22.35;37.15;99844.41;4970568;28;20034;-93
2022/10/24 12:55:50;;;;;;;2.88;1.40;;;;;;;22.21;37.06;99819.16;4974037;28;20026;-92
2022/10/24 12:58:29;;;;;;;1.92;1.20;;;;;;;22.15;36.84;99824.03;4974769;28;20379;-93
2022/10/24 13:00:59;;;;;;;1.92;1.55;;;;;;;22.17;37.29;99831.94;4941601;28;20031;-94
2022/10/24 13:04:04;;;;;;;3.63;1.35;;;;;;;22.25;37.25;99847.56;4994516;28;20037;-93
2022/10/24 13:06:55;;;;;;;1.70;0.88;;;;;;;22.12;36.98;99840.34;4975496;28;20026;-94
2022/10/24 13:10:11;;;;;;;4.78;1.90;;;;;;;22.17;37.25;99838.22;4981833;28;20034;-94
2022/10/24 13:13:07;;;;;;;5.93;3.22;;;;;;;22.29;37.20;99839.47;4901019;29;20028;-93
2022/10/24 13:15:53;;;;;;;1.90;1.30;;;;;;;22.37;36.38;99844.03;4977611;28;20548;-96
2022/10/24 13:18:25;;;;;;;2.95;1.40;;;;;;;22.39;37.24;99837.09;4961409;28;20092;-92
2022/10/24 13:21:14;;;;;;;3.53;1.35;;;;;;;22.32;36.22;99828.59;4977569;28;20416;-92
2022/10/24 13:23:43;;;;;;;4.40;1.35;;;;;;;22.18;36.59;99806.09;4946874;28;20031;-93
2022/10/24 13:26:10;;;;;;;2.33;1.25;;;;;;;22.23;36.44;99814.16;4945345;28;20184;-93
2022/10/24 13:28:42;;;;;;;3.95;2.38;;;;;;;22.29;36.44;99820.25;4946217;28;20032;-94
2022/10/24 13:31:10;;;;;;;;;;;;;;;22.29;36.88;99826.53;4963531;28;20097;-94
2022/10/24 13:33:43;;;;;;;2.35;1.25;;;;;;;22.18;36.74;99812.41;4972646;28;19913;-93
2022/10/24 13:36:08;;;;;;;2.45;1.30;;;;;;;22.19;37.48;99824.19;4993480;28;20480;-93
2022/10/24 13:38:49;;;;;;;4.80;2.00;;;;;;;21.97;37.25;99793.19;4995576;28;20029;-93
2022/10/24 13:41:56;;;;;;;2.15;1.00;;;;;;;22.08;37.13;99812.00;4940572;28;20796;-94
2022/10/24 13:44:47;;;;;;;2.97;1.00;;;;;;;22.12;36.97;99812.91;4977277;28;20116;-93
2022/10/24 13:47:27;;;;;;;3.78;1.10;;;;;;;22.14;37.14;99806.00;4977955;28;20030;-93
2022/10/24 13:50:16;;;;;;;3.58;1.42;;;;;;;22.15;37.49;99806.78;4948887;28;20054;-95
2022/10/24 13:52:44;;;;;;;4.82;1.67;;;;;;;22.17;38.30;99816.28;4947771;28;20026;-94
2022/10/24 13:55:10;;;;;;;4.25;1.40;;;;;;;22.13;37.68;99800.84;4995334;28;20030;-95
2022/10/24 13:57:58;;;;;;;4.47;1.48;;;;;;;22.00;38.19;99789.00;4977266;28;20567;-92
2022/10/24 14:00:32;;;;;;;2.83;1.20;;;;;;;22.02;38.11;99794.13;4959052;28;20089;-93
2022/10/24 14:03:01;;;;;;;2.22;1.15;;;;;;;22.10;37.91;99787.78;4947091;28;20075;-94
2022/10/24 14:05:35;;;;;;;6.63;3.38;;;;;;;22.08;38.61;99784.56;4944558;28;20114;-92